Main page
METAR-TAF:

METAR-TAF

Airports :

Moscow-Sheremetyevo, Russia

Sheremetyevo International Airport

latitude: 55-59N, longitude: 037-30E, elevation: 190 m

Current weather observation

The report was made 27 minutes ago, at 08:30 UTC
Wind 14 kt from the South/Southeast
Temperature 22°C
Humidity 38%
Pressure 1019 hPa
Visibility 10 km or more
no clouds below 1500 m and no cumulonimbus

METAR: UUEE 300830Z 15007MPS CAVOK 22/07 Q1019 R06R/CLRD62 NOSIG

Time: 11:57 (08:57 UTC)

Forecast

The report was made 57 minutes ago, at 08:00 UTC
Forecast valid from 30 at 09 UTC to 01 at 09 UTC
Wind 16 kt from the Southeast
Visibility 10 km or more
no clouds below 1500 m and no cumulonimbus
Temporary
from 30 at 09 UTC to 30 at 18 UTC
Wind 25 kt from the South/Southeast
Becoming
from 30 at 22 UTC to 30 at 24 UTC
Wind 6 kt from the South/Southeast

TAF: UUEE 300800Z 3009/0109 14008MPS CAVOK TX24/3012Z TN09/0102Z TEMPO 3009/3018 16013MPS BECMG 3022/3024 16003MPS

Weather observations and forecasts of more than 4000 airports (METAR and TAF reports).

The available stations are represented by yellow and red dots on the map.

Hover mouse over dot to see the name of the station.

Then click to see weather observations and forecasts.

To change the map : click on the green buttons with a black cross to zoom in, on the green button with a dash to zoom out, or on the green arrows for adjacent maps.


METAR-TAF: